Time;durP1;ratioP1;P1;durP2;ratioP2;P2;SDS_P1;SDS_P2;PMS_P1;PMS_P2;Temp;Humidity;BMP_temperature;BMP_pressure;BME280_temperature;BME280_humidity;BME280_pressure;Samples;Min_cycle;Max_cycle;Signal;HPM_P1;HPM_P2
2021/01/21 05:00:15;;;;;;;;;;;9.30;96.80;;;;;;6145060;22;20001;31
2021/01/21 05:02:41;;;;;;;;;;;9.30;96.80;;;;;;5036892;28;19921;-64
2021/01/21 05:05:08;;;;;;;;;;;9.20;96.50;;;;;;5038912;28;19928;-63
2021/01/21 05:07:35;;;;;;;;;;;9.30;96.50;;;;;;5039489;28;19921;-64
2021/01/21 05:10:02;;;;;;;;;;;9.30;96.20;;;;;;5040235;28;19921;-63
2021/01/21 05:12:28;;;;;;;;;;;9.30;96.20;;;;;;5041468;28;19921;-64
2021/01/21 05:14:54;;;;;;;;;;;9.30;95.90;;;;;;5039886;28;19928;-64
2021/01/21 05:17:20;;;;;;;;;;;9.30;95.90;;;;;;5039085;28;19921;-65
2021/01/21 05:19:47;;;;;;;;;;;9.30;95.60;;;;;;5036919;28;20379;-65
2021/01/21 05:22:14;;;;;;;;;;;9.30;95.30;;;;;;5038002;28;20363;-64
2021/01/21 05:24:40;;;;;;;;;;;9.40;95.20;;;;;;5037404;28;19951;-64
2021/01/21 05:27:07;;;;;;;;;;;9.50;94.90;;;;;;5036462;28;19925;-64
2021/01/21 05:29:35;;;;;;;;;;;9.50;94.70;;;;;;5037395;28;19932;-64
2021/01/21 05:32:02;;;;;;;;;;;9.60;94.60;;;;;;5037189;28;19921;-66
2021/01/21 05:34:31;;;;;;;;;;;9.70;93.80;;;;;;5036541;28;19986;-63
2021/01/21 05:36:57;;;;;;;;;;;9.80;92.60;;;;;;5036706;28;19925;-63
2021/01/21 05:39:23;;;;;;;;;;;10.00;92.20;;;;;;5036663;28;20394;-64
2021/01/21 05:41:49;;;;;;;;;;;10.20;91.70;;;;;;5038360;28;19928;-63
2021/01/21 05:44:16;;;;;;;;;;;10.30;91.40;;;;;;5037440;28;19928;-65
2021/01/21 05:46:43;;;;;;;;;;;10.50;90.00;;;;;;5036908;28;20398;-65
2021/01/21 05:49:10;;;;;;;;;;;10.60;90.50;;;;;;5037523;28;19928;-64
2021/01/21 05:51:37;;;;;;;;;;;10.60;89.50;;;;;;5037583;28;19996;-64
2021/01/21 05:54:03;;;;;;;;;;;10.70;88.90;;;;;;5036989;28;19924;-64
2021/01/21 05:56:30;;;;;;;;;;;10.80;87.60;;;;;;5037085;28;19936;-65
2021/01/21 05:58:56;;;;;;;;;;;10.80;87.60;;;;;;5036797;28;19921;-65
2021/01/21 06:01:24;;;;;;;;;;;10.90;87.30;;;;;;5036628;28;19956;-63
2021/01/21 06:03:50;;;;;;;;;;;10.90;84.90;;;;;;5036915;28;19921;-64
2021/01/21 06:06:17;;;;;;;;;;;10.90;84.30;;;;;;5036436;28;20275;-63
2021/01/21 06:08:44;;;;;;;;;;;11.00;83.80;;;;;;5036704;28;19932;-65
2021/01/21 06:11:11;;;;;;;;;;;11.10;84.40;;;;;;5036406;28;19921;-64
2021/01/21 06:13:37;;;;;;;;;;;11.10;82.90;;;;;;5036456;28;19921;-64
2021/01/21 06:16:05;;;;;;;;;;;11.10;82.40;;;;;;5036373;28;19975;-64
2021/01/21 06:18:31;;;;;;;;;;;11.20;82.70;;;;;;5045294;28;19921;-63
2021/01/21 06:20:57;;;;;;;;;;;11.20;82.50;;;;;;5041172;28;19928;-63
2021/01/21 06:23:25;;;;;;;;;;;11.20;82.90;;;;;;5035209;28;20379;-62
2021/01/21 06:25:52;;;;;;;;;;;11.20;82.20;;;;;;5035206;28;19925;-65
2021/01/21 06:28:18;;;;;;;;;;;11.20;82.70;;;;;;5035432;28;19987;-64
2021/01/21 06:30:45;;;;;;;;;;;11.10;82.90;;;;;;5035245;28;19967;-63
2021/01/21 06:33:12;;;;;;;;;;;11.10;81.90;;;;;;5035177;28;20364;-63
2021/01/21 06:35:39;;;;;;;;;;;11.10;82.50;;;;;;5035222;28;19921;-62
2021/01/21 06:38:06;;;;;;;;;;;11.10;83.20;;;;;;5034936;28;19920;-63
2021/01/21 06:40:33;;;;;;;;;;;11.00;83.00;;;;;;5034742;28;19959;-63
2021/01/21 06:43:02;;;;;;;;;;;11.00;83.70;;;;;;5035666;28;19921;-63
2021/01/21 06:45:31;;;;;;;;;;;10.90;84.30;;;;;;5035405;28;20398;-63
2021/01/21 06:47:57;;;;;;;;;;;10.90;84.10;;;;;;5035257;28;20349;-63
2021/01/21 06:50:26;;;;;;;;;;;10.80;83.70;;;;;;5035355;28;19932;-64
2021/01/21 06:52:53;;;;;;;;;;;10.80;84.50;;;;;;5035992;28;19921;-65
2021/01/21 06:55:19;;;;;;;;;;;10.80;84.70;;;;;;5035497;28;20371;-63
2021/01/21 06:57:45;;;;;;;;;;;10.80;85.30;;;;;;5035918;28;19921;-63
2021/01/21 07:00:16;;;;;;;;;;;10.80;85.50;;;;;;5035678;28;19944;-63
2021/01/21 07:02:44;;;;;;;;;;;10.80;85.90;;;;;;5035482;28;20295;-64
2021/01/21 07:05:10;;;;;;;;;;;10.80;86.30;;;;;;5035777;28;20006;-64
2021/01/21 07:08:03;;;;;;;;;;;10.80;86.80;;;;;;5036227;28;20275;-63
2021/01/21 07:10:32;;;;;;;;;;;10.80;87.10;;;;;;4989089;28;19928;-63
2021/01/21 07:12:58;;;;;;;;;;;10.80;88.80;;;;;;5036369;28;19920;-63
2021/01/21 07:15:33;;;;;;;;;;;10.90;90.00;;;;;;5035908;28;19921;-63
2021/01/21 07:18:03;;;;;;;;;;;10.90;90.20;;;;;;5035581;28;19921;-63
2021/01/21 07:20:30;;;;;;;;;;;10.90;90.60;;;;;;5042388;28;19929;-63
2021/01/21 07:22:58;;;;;;;;;;;10.80;91.10;;;;;;5052525;28;19928;-64
2021/01/21 07:25:29;;;;;;;;;;;10.80;91.40;;;;;;5053608;28;19913;-63
2021/01/21 07:27:55;;;;;;;;;;;10.90;93.20;;;;;;5048614;28;20252;-65
2021/01/21 07:30:22;;;;;;;;;;;10.90;96.50;;;;;;5041210;28;19921;-67
2021/01/21 07:32:49;;;;;;;;;;;11.00;95.00;;;;;;5042198;28;19943;-64
2021/01/21 07:35:30;;;;;;;;;;;10.90;95.10;;;;;;5039300;28;19921;-63
2021/01/21 07:37:56;;;;;;;;;;;10.90;96.30;;;;;;5038006;28;19929;-61
2021/01/21 07:40:39;;;;;;;;;;;11.00;97.90;;;;;;5038130;28;19932;-61
2021/01/21 07:43:05;;;;;;;;;;;11.00;99.90;;;;;;5036903;28;19975;-61
2021/01/21 07:45:32;;;;;;;;;;;11.10;99.90;;;;;;5037824;28;19925;-62
2021/01/21 07:48:17;;;;;;;;;;;11.30;99.90;;;;;;5038237;28;19928;-61
2021/01/21 07:50:43;;;;;;;;;;;11.20;99.90;;;;;;5048460;28;19925;-63
2021/01/21 07:53:26;;;;;;;;;;;11.20;99.90;;;;;;5039429;28;20379;-63
2021/01/21 07:55:53;;;;;;;;;;;11.30;99.90;;;;;;5040098;28;19928;-63
2021/01/21 07:58:19;;;;;;;;;;;11.50;99.90;;;;;;5038602;28;19921;-63
2021/01/21 08:00:46;;;;;;;;;;;12.00;99.90;;;;;;5038005;28;19921;-64
2021/01/21 08:03:13;;;;;;;;;;;12.90;99.90;;;;;;5038410;28;20450;-64
2021/01/21 08:05:39;;;;;;;;;;;13.50;98.40;;;;;;5038418;28;19944;-63
2021/01/21 08:08:05;;;;;;;;;;;13.70;98.30;;;;;;5038539;28;19921;-64
2021/01/21 08:10:32;;;;;;;;;;;13.40;97.60;;;;;;5038875;28;19983;-63
2021/01/21 08:12:59;;;;;;;;;;;13.10;98.20;;;;;;5039270;28;19921;-65
2021/01/21 08:15:26;;;;;;;;;;;12.90;98.60;;;;;;5039021;28;19921;-64
2021/01/21 08:17:53;;;;;;;;;;;13.20;99.10;;;;;;5039324;28;19928;-64
2021/01/21 08:20:20;;;;;;;;;;;14.30;97.50;;;;;;5039956;28;19928;-62
2021/01/21 08:22:53;;;;;;;;;;;14.80;95.60;;;;;;5039873;28;19920;-64
2021/01/21 08:25:19;;;;;;;;;;;15.70;93.80;;;;;;5041804;28;19921;-63
2021/01/21 08:27:46;;;;;;;;;;;15.90;92.40;;;;;;5040459;28;19990;-65
2021/01/21 08:30:16;;;;;;;;;;;16.10;91.70;;;;;;5038388;28;20288;-63
2021/01/21 08:32:43;;;;;;;;;;;16.70;91.00;;;;;;5038128;28;19921;-62
2021/01/21 08:35:11;;;;;;;;;;;16.30;90.00;;;;;;5038110;28;19992;-64
2021/01/21 08:37:39;;;;;;;;;;;16.20;90.40;;;;;;5038272;28;19921;-62
2021/01/21 08:40:06;;;;;;;;;;;16.80;89.50;;;;;;5040303;28;19928;-65
2021/01/21 08:42:32;;;;;;;;;;;16.90;89.10;;;;;;5040824;28;19921;-63
2021/01/21 08:44:58;;;;;;;;;;;16.50;89.00;;;;;;5039545;28;19921;-62
2021/01/21 08:47:24;;;;;;;;;;;17.40;87.00;;;;;;5039318;28;19928;-64
2021/01/21 08:49:51;;;;;;;;;;;17.60;85.10;;;;;;5040281;28;19921;-62
2021/01/21 08:52:17;;;;;;;;;;;17.60;83.80;;;;;;5039201;28;19971;-62
2021/01/21 08:54:52;;;;;;;;;;;16.70;86.20;;;;;;5039732;28;19971;-63
2021/01/21 08:57:20;;;;;;;;;;;16.10;89.00;;;;;;5040946;28;19964;-63
2021/01/21 08:59:46;;;;;;;;;;;15.60;90.20;;;;;;5040323;28;19921;-62
2021/01/21 09:02:12;;;;;;;;;;;16.00;90.00;;;;;;5039799;28;20390;-64
2021/01/21 09:04:39;;;;;;;;;;;16.00;89.60;;;;;;5040042;28;20023;-63
2021/01/21 09:07:05;;;;;;;;;;;16.00;90.20;;;;;;5039336;28;19927;-63
2021/01/21 09:09:33;;;;;;;;;;;15.40;90.40;;;;;;5039424;28;19921;-64
2021/01/21 09:12:13;;;;;;;;;;;15.50;90.90;;;;;;5040358;28;19921;-63
2021/01/21 09:14:40;;;;;;;;;;;14.60;92.20;;;;;;5039647;28;19960;-62
2021/01/21 09:17:12;;;;;;;;;;;14.90;92.90;;;;;;5041123;28;19932;-62
2021/01/21 09:19:38;;;;;;;;;;;15.40;92.40;;;;;;5043989;28;19920;-63
2021/01/21 09:22:05;;;;;;;;;;;16.50;91.20;;;;;;5047619;28;19921;-63
2021/01/21 09:24:32;;;;;;;;;;;16.90;89.70;;;;;;5038180;28;20365;-62
2021/01/21 09:27:07;;;;;;;;;;;16.60;89.50;;;;;;5037494;28;19925;-63
2021/01/21 09:29:47;;;;;;;;;;;15.90;90.50;;;;;;5037189;28;20385;-62
2021/01/21 09:32:14;;;;;;;;;;;15.30;91.60;;;;;;5038480;28;20502;-62
2021/01/21 09:34:50;;;;;;;;;;;14.50;92.50;;;;;;5037774;28;19925;-63
2021/01/21 09:37:16;;;;;;;;;;;14.00;93.70;;;;;;5037804;28;19928;-63
2021/01/21 09:39:42;;;;;;;;;;;13.50;94.80;;;;;;5038045;28;19921;-62
2021/01/21 09:42:08;;;;;;;;;;;13.50;95.60;;;;;;5038420;28;19921;-62
2021/01/21 09:44:34;;;;;;;;;;;14.00;95.50;;;;;;5037982;28;19921;-62
2021/01/21 09:47:01;;;;;;;;;;;15.00;94.10;;;;;;5037314;28;19921;-63
2021/01/21 09:49:27;;;;;;;;;;;16.20;92.30;;;;;;5037814;28;20057;-63
2021/01/21 09:51:53;;;;;;;;;;;16.70;90.90;;;;;;5037810;28;19932;-63
2021/01/21 09:54:19;;;;;;;;;;;17.50;90.10;;;;;;5036709;28;19928;-63
2021/01/21 09:56:46;;;;;;;;;;;18.20;86.90;;;;;;5037415;28;19928;-63
2021/01/21 09:59:12;;;;;;;;;;;18.80;85.00;;;;;;5036341;28;19925;-63
2021/01/21 10:01:38;;;;;;;;;;;18.70;83.60;;;;;;5036110;28;19921;-62
2021/01/21 10:04:05;;;;;;;;;;;18.60;83.80;;;;;;5037061;28;19925;-63
2021/01/21 10:06:31;;;;;;;;;;;18.90;80.80;;;;;;5037791;28;19921;-63
2021/01/21 10:08:57;;;;;;;;;;;19.30;81.60;;;;;;5037021;28;19921;-63
2021/01/21 10:11:23;;;;;;;;;;;19.30;79.50;;;;;;5037677;28;19921;-63
2021/01/21 10:13:49;;;;;;;;;;;19.50;79.70;;;;;;5036396;28;19921;-62
2021/01/21 10:16:15;;;;;;;;;;;20.20;77.90;;;;;;5038462;28;19921;-63
2021/01/21 10:18:41;;;;;;;;;;;19.60;76.80;;;;;;5037570;28;19928;-64
2021/01/21 10:21:09;;;;;;;;;;;18.60;79.40;;;;;;5037057;28;19924;-62
2021/01/21 10:23:35;;;;;;;;;;;18.00;81.50;;;;;;5036606;28;19921;-65
2021/01/21 10:26:01;;;;;;;;;;;18.10;82.30;;;;;;5036645;28;19928;-62
2021/01/21 10:28:27;;;;;;;;;;;18.10;83.60;;;;;;5036673;28;19927;-62
2021/01/21 10:30:53;;;;;;;;;;;18.50;81.60;;;;;;5036416;28;19926;-62
2021/01/21 10:33:19;;;;;;;;;;;19.20;80.10;;;;;;5036599;28;19928;-63
2021/01/21 10:35:45;;;;;;;;;;;18.80;80.00;;;;;;5036774;28;19928;-63
2021/01/21 10:38:12;;;;;;;;;;;17.90;82.20;;;;;;5037894;28;19921;-63
2021/01/21 10:40:39;;;;;;;;;;;17.40;84.40;;;;;;5038035;28;19943;-62
2021/01/21 10:43:05;;;;;;;;;;;17.60;86.10;;;;;;5038354;28;19921;-62
2021/01/21 10:45:31;;;;;;;;;;;17.20;86.50;;;;;;5038931;28;19928;-63
2021/01/21 10:47:57;;;;;;;;;;;16.60;87.30;;;;;;5040245;28;19921;-63
2021/01/21 10:50:23;;;;;;;;;;;16.40;90.20;;;;;;5044599;28;19928;-64
2021/01/21 10:52:49;;;;;;;;;;;16.20;90.10;;;;;;5050943;28;20368;-62
2021/01/21 10:55:16;;;;;;;;;;;16.10;90.60;;;;;;5040542;28;19920;-63
2021/01/21 10:57:42;;;;;;;;;;;16.10;91.00;;;;;;5038878;28;20376;-62
2021/01/21 11:00:08;;;;;;;;;;;15.70;91.40;;;;;;5039654;28;19921;-62
2021/01/21 11:02:34;;;;;;;;;;;15.50;92.60;;;;;;5041181;28;19932;-62
2021/01/21 11:05:00;;;;;;;;;;;15.20;93.60;;;;;;5042071;28;19921;-62
2021/01/21 11:07:26;;;;;;;;;;;15.50;94.00;;;;;;5042917;28;19921;-62
2021/01/21 11:09:52;;;;;;;;;;;15.40;93.60;;;;;;5042731;28;19928;-64
2021/01/21 11:12:19;;;;;;;;;;;15.10;94.70;;;;;;5041768;28;19921;-62
2021/01/21 11:14:48;;;;;;;;;;;14.90;94.80;;;;;;5039180;28;19921;-63
2021/01/21 11:17:14;;;;;;;;;;;14.60;96.20;;;;;;5034996;28;19932;-63
2021/01/21 11:19:40;;;;;;;;;;;14.20;97.40;;;;;;5035792;28;20323;-65
2021/01/21 11:22:06;;;;;;;;;;;14.00;99.70;;;;;;5035078;28;19924;-62
2021/01/21 11:24:32;;;;;;;;;;;14.20;99.90;;;;;;5034782;28;19921;-66
2021/01/21 11:26:58;;;;;;;;;;;14.50;99.50;;;;;;5038648;28;20303;-63
2021/01/21 11:29:25;;;;;;;;;;;14.80;99.90;;;;;;5038973;28;19979;-64
2021/01/21 11:31:52;;;;;;;;;;;14.70;99.90;;;;;;5039767;28;20371;-64
2021/01/21 11:34:18;;;;;;;;;;;14.60;99.90;;;;;;5039762;28;19925;-63
2021/01/21 11:36:44;;;;;;;;;;;14.60;99.90;;;;;;5039055;28;20273;-63
2021/01/21 11:39:11;;;;;;;;;;;14.50;99.90;;;;;;5039134;28;19925;-63
2021/01/21 11:41:37;;;;;;;;;;;14.30;99.90;;;;;;5038688;28;19925;-63
2021/01/21 11:44:03;;;;;;;;;;;14.20;99.90;;;;;;5038855;28;19921;-64
2021/01/21 11:46:30;;;;;;;;;;;14.20;99.90;;;;;;5039365;28;19921;-63
2021/01/21 11:48:56;;;;;;;;;;;14.30;99.90;;;;;;5038404;28;19921;-62
2021/01/21 11:51:22;;;;;;;;;;;14.30;99.90;;;;;;5039300;28;19928;-63
2021/01/21 11:53:48;;;;;;;;;;;14.10;99.90;;;;;;5039082;28;19921;-63
2021/01/21 11:56:14;;;;;;;;;;;14.20;99.90;;;;;;5043185;28;19917;-63
2021/01/21 11:58:40;;;;;;;;;;;14.30;99.90;;;;;;5057913;28;19921;-63
2021/01/21 12:01:06;;;;;;;;;;;14.40;99.90;;;;;;5055179;28;19932;-63
2021/01/21 12:03:33;;;;;;;;;;;14.30;99.90;;;;;;5055910;28;19928;-63
2021/01/21 12:05:59;;;;;;;;;;;14.30;99.90;;;;;;5056864;28;19963;-64
2021/01/21 12:08:25;;;;;;;;;;;14.30;99.90;;;;;;5054419;28;19921;-62
2021/01/21 12:10:52;;;;;;;;;;;14.10;99.90;;;;;;5043007;28;19920;-65
2021/01/21 12:13:18;;;;;;;;;;;14.10;99.90;;;;;;5042612;28;19928;-63
2021/01/21 12:15:44;;;;;;;;;;;14.00;99.90;;;;;;5040663;28;19942;-65
2021/01/21 12:18:10;;;;;;;;;;;13.90;99.90;;;;;;5040084;28;19921;-63
2021/01/21 12:20:37;;;;;;;;;;;13.80;99.90;;;;;;5040069;28;19921;-63
2021/01/21 12:23:03;;;;;;;;;;;13.80;99.90;;;;;;5048421;28;20020;-64
2021/01/21 12:25:29;;;;;;;;;;;13.70;99.90;;;;;;5043963;28;19921;-63
2021/01/21 12:27:55;;;;;;;;;;;13.70;99.90;;;;;;5037649;28;19921;-63
2021/01/21 12:30:21;;;;;;;;;;;13.60;99.90;;;;;;5037793;28;19921;-63
2021/01/21 12:32:47;;;;;;;;;;;13.50;99.90;;;;;;5037765;28;19928;-64
2021/01/21 12:35:14;;;;;;;;;;;13.50;99.90;;;;;;5037743;28;19925;-63
2021/01/21 12:37:41;;;;;;;;;;;13.40;99.90;;;;;;5037137;28;19921;-64
2021/01/21 12:40:07;;;;;;;;;;;13.40;99.90;;;;;;5037429;28;19921;-65
2021/01/21 12:42:33;;;;;;;;;;;13.60;99.90;;;;;;5037806;28;19921;-64
2021/01/21 12:44:59;;;;;;;;;;;13.60;99.90;;;;;;5037788;28;19921;-64
2021/01/21 12:47:26;;;;;;;;;;;13.80;99.90;;;;;;5037168;28;19921;-64
2021/01/21 12:49:52;;;;;;;;;;;13.80;99.90;;;;;;5037384;28;19928;-64
2021/01/21 12:52:18;;;;;;;;;;;13.90;99.90;;;;;;5037232;28;19921;-64
2021/01/21 12:54:47;;;;;;;;;;;13.90;99.90;;;;;;5037231;28;19931;-64
2021/01/21 12:57:14;;;;;;;;;;;13.80;99.90;;;;;;5038476;28;19921;-63
2021/01/21 12:59:40;;;;;;;;;;;13.80;99.90;;;;;;5037931;28;19921;-64
2021/01/21 13:02:06;;;;;;;;;;;13.90;99.90;;;;;;5037251;28;19925;-64
2021/01/21 13:04:32;;;;;;;;;;;13.90;99.90;;;;;;5037668;28;19928;-63
2021/01/21 13:06:58;;;;;;;;;;;14.00;99.90;;;;;;5037123;28;19921;-64
2021/01/21 13:09:24;;;;;;;;;;;13.90;99.90;;;;;;5036996;28;19929;-65
2021/01/21 13:11:51;;;;;;;;;;;13.80;99.90;;;;;;5036727;28;19928;-65
2021/01/21 13:14:17;;;;;;;;;;;13.80;99.90;;;;;;5036527;28;19921;-65
2021/01/21 13:16:43;;;;;;;;;;;13.80;99.90;;;;;;5037120;28;19921;-65
2021/01/21 13:19:09;;;;;;;;;;;13.80;99.90;;;;;;5037188;28;19921;-64
2021/01/21 13:21:35;;;;;;;;;;;13.80;99.90;;;;;;5037126;28;19944;-63
2021/01/21 13:24:01;;;;;;;;;;;13.80;99.90;;;;;;5037363;28;19944;-64
2021/01/21 13:26:27;;;;;;;;;;;13.80;99.90;;;;;;5037838;28;20312;-63
2021/01/21 13:28:55;;;;;;;;;;;13.70;99.90;;;;;;5037435;28;20335;-63
2021/01/21 13:31:21;;;;;;;;;;;13.70;99.90;;;;;;5036696;28;19920;-64
2021/01/21 13:33:47;;;;;;;;;;;13.70;99.90;;;;;;5036949;28;19921;-63
2021/01/21 13:36:14;;;;;;;;;;;13.70;99.90;;;;;;5037084;28;19928;-64
2021/01/21 13:38:40;;;;;;;;;;;13.60;99.90;;;;;;5038137;28;19946;-64
2021/01/21 13:41:06;;;;;;;;;;;13.40;99.90;;;;;;5038577;28;19924;-64
2021/01/21 13:43:32;;;;;;;;;;;13.40;99.90;;;;;;5038517;28;19921;-63
2021/01/21 13:45:59;;;;;;;;;;;13.40;99.90;;;;;;5037931;28;20342;-63
2021/01/21 13:48:25;;;;;;;;;;;13.20;99.90;;;;;;5036663;28;19921;-65
2021/01/21 13:50:52;;;;;;;;;;;13.30;99.90;;;;;;5038384;28;19928;-65
2021/01/21 13:53:18;;;;;;;;;;;13.20;99.90;;;;;;5039395;28;19921;-64
2021/01/21 13:55:44;;;;;;;;;;;13.20;99.90;;;;;;5045096;28;19983;-64
2021/01/21 13:58:10;;;;;;;;;;;13.20;99.90;;;;;;5036937;28;19967;-64
2021/01/21 14:00:36;;;;;;;;;;;13.10;99.90;;;;;;5035786;28;19924;-65
2021/01/21 14:03:03;;;;;;;;;;;12.90;99.90;;;;;;5036290;28;19928;-63
2021/01/21 14:05:29;;;;;;;;;;;12.80;99.90;;;;;;5036687;28;19921;-64
2021/01/21 14:07:55;;;;;;;;;;;12.80;99.90;;;;;;5036157;28;19920;-64
2021/01/21 14:10:21;;;;;;;;;;;12.70;99.90;;;;;;5036666;28;19921;-66
2021/01/21 14:12:47;;;;;;;;;;;12.60;99.90;;;;;;5035896;28;19921;-64
2021/01/21 14:15:14;;;;;;;;;;;12.70;99.90;;;;;;5037880;28;19921;-65
2021/01/21 14:17:40;;;;;;;;;;;12.70;99.90;;;;;;5050778;28;19987;-63
2021/01/21 14:20:08;;;;;;;;;;;12.80;99.90;;;;;;5049541;28;19925;-63
2021/01/21 14:22:34;;;;;;;;;;;12.70;99.90;;;;;;5048816;28;20377;-64
2021/01/21 14:25:00;;;;;;;;;;;12.60;99.90;;;;;;5049552;28;19928;-63
2021/01/21 14:27:27;;;;;;;;;;;12.40;99.90;;;;;;5039055;28;19921;-64
2021/01/21 14:29:53;;;;;;;;;;;12.30;99.90;;;;;;5037219;28;19921;-64
2021/01/21 14:32:19;;;;;;;;;;;12.30;99.90;;;;;;5037409;28;20287;-63
2021/01/21 14:34:45;;;;;;;;;;;12.20;99.90;;;;;;5036474;28;20394;-63
2021/01/21 14:37:13;;;;;;;;;;;12.10;99.90;;;;;;5036004;28;21161;-63
2021/01/21 14:39:39;;;;;;;;;;;12.20;99.90;;;;;;5035724;28;19925;-65
2021/01/21 14:42:05;;;;;;;;;;;12.20;99.90;;;;;;5035521;28;19932;-63
2021/01/21 14:44:31;;;;;;;;;;;12.10;99.90;;;;;;5035910;28;19925;-64
2021/01/21 14:46:57;;;;;;;;;;;12.10;99.90;;;;;;5035556;28;20299;-65
2021/01/21 14:49:23;;;;;;;;;;;12.10;99.90;;;;;;5035491;28;19925;-64
2021/01/21 14:51:49;;;;;;;;;;;12.10;99.90;;;;;;5035557;28;20014;-65
2021/01/21 14:54:16;;;;;;;;;;;12.10;99.90;;;;;;5035329;28;19926;-63
2021/01/21 14:56:42;;;;;;;;;;;12.00;99.90;;;;;;5035587;28;19925;-64
2021/01/21 14:59:08;;;;;;;;;;;12.00;99.90;;;;;;5034871;28;19947;-64
2021/01/21 15:01:34;;;;;;;;;;;12.00;99.90;;;;;;5035850;28;20311;-64
2021/01/21 15:04:00;;;;;;;;;;;12.10;99.90;;;;;;5035417;28;20376;-64
2021/01/21 15:06:26;;;;;;;;;;;12.10;99.90;;;;;;5035073;28;19933;-64
2021/01/21 15:08:52;;;;;;;;;;;12.20;99.90;;;;;;5036109;28;19925;-64
2021/01/21 15:11:19;;;;;;;;;;;12.20;99.90;;;;;;5034940;28;19925;-64
2021/01/21 15:13:45;;;;;;;;;;;12.20;99.90;;;;;;5034986;28;19925;-63
2021/01/21 15:16:11;;;;;;;;;;;12.20;99.90;;;;;;5035588;28;19925;-63
2021/01/21 15:18:37;;;;;;;;;;;12.10;99.90;;;;;;5035183;28;19932;-64
2021/01/21 15:21:09;;;;;;;;;;;12.20;99.90;;;;;;5034982;28;19948;-64
2021/01/21 15:23:35;;;;;;;;;;;12.20;99.90;;;;;;5034862;28;20280;-64
2021/01/21 15:26:01;;;;;;;;;;;12.20;99.90;;;;;;5035179;28;20338;-63
2021/01/21 15:28:28;;;;;;;;;;;12.10;99.90;;;;;;5039648;28;19925;-63
2021/01/21 15:30:54;;;;;;;;;;;12.00;99.90;;;;;;5037784;28;20134;-64
2021/01/21 15:33:20;;;;;;;;;;;12.00;99.90;;;;;;5035212;28;19925;-64
2021/01/21 15:35:46;;;;;;;;;;;11.80;99.90;;;;;;5036064;28;19925;-64
2021/01/21 15:38:12;;;;;;;;;;;11.80;99.90;;;;;;5035807;28;19979;-64
2021/01/21 15:40:38;;;;;;;;;;;11.80;99.90;;;;;;5036475;28;19975;-65
2021/01/21 15:43:08;;;;;;;;;;;11.80;99.90;;;;;;5035544;28;20311;-64
2021/01/21 15:45:35;;;;;;;;;;;11.70;99.90;;;;;;5035887;28;19975;-63
2021/01/21 15:48:01;;;;;;;;;;;11.70;99.90;;;;;;5035227;28;19924;-64
2021/01/21 15:50:28;;;;;;;;;;;11.60;99.90;;;;;;5035114;28;20303;-65
2021/01/21 15:52:55;;;;;;;;;;;11.60;99.90;;;;;;5035912;28;20015;-64
2021/01/21 15:55:21;;;;;;;;;;;11.60;99.90;;;;;;5035171;28;19925;-64
2021/01/21 15:57:47;;;;;;;;;;;11.60;99.90;;;;;;5034504;28;19932;-63
2021/01/21 16:00:13;;;;;;;;;;;11.60;99.90;;;;;;5034560;28;19932;-63
2021/01/21 16:02:40;;;;;;;;;;;11.50;99.90;;;;;;5034728;28;19924;-65
2021/01/21 16:05:08;;;;;;;;;;;11.50;99.90;;;;;;5034952;28;19929;-65
2021/01/21 16:07:34;;;;;;;;;;;11.50;99.90;;;;;;5036268;28;19929;-63
2021/01/21 16:10:00;;;;;;;;;;;11.40;99.90;;;;;;5035801;28;19932;-64
2021/01/21 16:12:26;;;;;;;;;;;11.30;99.90;;;;;;5037001;28;20390;-63
2021/01/21 16:14:52;;;;;;;;;;;11.20;99.90;;;;;;5038780;28;19925;-65
2021/01/21 16:17:20;;;;;;;;;;;11.20;99.90;;;;;;5038561;28;19929;-65
2021/01/21 16:19:46;;;;;;;;;;;11.10;99.90;;;;;;5040375;28;19925;-63
2021/01/21 16:22:13;;;;;;;;;;;11.00;99.90;;;;;;5046342;28;19925;-64
2021/01/21 16:24:39;;;;;;;;;;;10.90;99.90;;;;;;5045068;28;19925;-63
2021/01/21 16:27:06;;;;;;;;;;;10.80;99.90;;;;;;5038578;28;20031;-64
2021/01/21 16:29:32;;;;;;;;;;;10.80;99.90;;;;;;5038046;28;19925;-63
2021/01/21 16:31:58;;;;;;;;;;;10.70;99.90;;;;;;5037782;28;19925;-63
2021/01/21 16:34:24;;;;;;;;;;;10.70;99.90;;;;;;5038389;28;19933;-64
2021/01/21 16:36:51;;;;;;;;;;;10.70;99.90;;;;;;5038056;28;19925;-63
2021/01/21 16:39:17;;;;;;;;;;;10.70;99.90;;;;;;5037880;28;19925;-62
2021/01/21 16:41:43;;;;;;;;;;;10.70;99.90;;;;;;5038186;28;19925;-63
2021/01/21 16:44:09;;;;;;;;;;;10.80;99.90;;;;;;5037394;28;19932;-63
2021/01/21 16:46:35;;;;;;;;;;;10.80;99.90;;;;;;5038613;28;19929;-64
2021/01/21 16:49:01;;;;;;;;;;;10.80;99.90;;;;;;5037976;28;19960;-64
2021/01/21 16:51:27;;;;;;;;;;;10.80;99.90;;;;;;5037842;28;20261;-64
2021/01/21 16:53:54;;;;;;;;;;;10.90;99.90;;;;;;5037549;28;20380;-64
2021/01/21 16:56:20;;;;;;;;;;;10.90;99.90;;;;;;5037230;28;20388;-64
2021/01/21 16:58:46;;;;;;;;;;;10.90;99.90;;;;;;5037670;28;19980;-63
2021/01/21 17:01:12;;;;;;;;;;;10.90;99.90;;;;;;5037306;28;19925;-63
2021/01/21 17:03:38;;;;;;;;;;;11.00;99.90;;;;;;5037673;28;19925;-64
2021/01/21 17:06:04;;;;;;;;;;;11.00;99.90;;;;;;5037826;28;20512;-63
2021/01/21 17:08:30;;;;;;;;;;;11.00;99.90;;;;;;5037443;28;20300;-63
2021/01/21 17:10:57;;;;;;;;;;;11.10;99.90;;;;;;5037344;28;20418;-64
2021/01/21 17:13:23;;;;;;;;;;;11.10;99.90;;;;;;5037236;28;20319;-63
2021/01/21 17:15:51;;;;;;;;;;;11.10;99.90;;;;;;5036618;28;20376;-63
2021/01/21 17:18:17;;;;;;;;;;;11.20;99.90;;;;;;5038028;28;19925;-63
2021/01/21 17:20:43;;;;;;;;;;;11.20;99.90;;;;;;5036884;28;19925;-63
2021/01/21 17:23:09;;;;;;;;;;;11.20;99.90;;;;;;5036105;28;20032;-65
2021/01/21 17:25:35;;;;;;;;;;;11.20;99.90;;;;;;5036801;28;20384;-63
2021/01/21 17:28:02;;;;;;;;;;;11.30;99.90;;;;;;5036819;28;19925;-64
2021/01/21 17:30:28;;;;;;;;;;;11.30;99.90;;;;;;5036308;28;19925;-64
2021/01/21 17:32:54;;;;;;;;;;;11.30;99.90;;;;;;5037098;28;19947;-64
2021/01/21 17:35:20;;;;;;;;;;;11.30;99.90;;;;;;5036719;28;19932;-64
2021/01/21 17:37:46;;;;;;;;;;;11.30;99.90;;;;;;5036719;28;19925;-63
2021/01/21 17:40:13;;;;;;;;;;;11.30;99.90;;;;;;5036542;28;19932;-65
2021/01/21 17:42:39;;;;;;;;;;;11.30;99.90;;;;;;5036145;28;19925;-61
2021/01/21 17:45:07;;;;;;;;;;;11.20;99.90;;;;;;5036690;28;19983;-61
2021/01/21 17:47:33;;;;;;;;;;;11.20;99.90;;;;;;5036782;28;19932;-64
2021/01/21 17:49:59;;;;;;;;;;;11.10;99.90;;;;;;5037759;28;19936;-66
2021/01/21 17:52:25;;;;;;;;;;;11.10;99.90;;;;;;5040503;28;19932;-65
2021/01/21 17:54:51;;;;;;;;;;;11.10;99.90;;;;;;5043566;28;19979;-62
2021/01/21 17:57:17;;;;;;;;;;;11.10;99.90;;;;;;5036493;28;20331;-64
2021/01/21 17:59:43;;;;;;;;;;;11.00;99.90;;;;;;5036848;28;19976;-63
2021/01/21 18:02:10;;;;;;;;;;;11.00;99.90;;;;;;5036882;28;19929;-63
2021/01/21 18:04:36;;;;;;;;;;;11.00;99.90;;;;;;5037701;28;19925;-63
2021/01/21 18:07:02;;;;;;;;;;;10.90;99.90;;;;;;5037720;28;19929;-65
2021/01/21 18:09:28;;;;;;;;;;;10.90;99.90;;;;;;5037331;28;19932;-63
2021/01/21 18:11:54;;;;;;;;;;;10.90;99.90;;;;;;5037672;28;19929;-64
2021/01/21 18:14:20;;;;;;;;;;;10.90;99.90;;;;;;5038264;28;20063;-65
2021/01/21 18:16:46;;;;;;;;;;;10.90;99.90;;;;;;5037830;28;19925;-64
2021/01/21 18:19:13;;;;;;;;;;;10.90;99.90;;;;;;5037362;28;19925;-63
2021/01/21 18:21:40;;;;;;;;;;;11.00;99.90;;;;;;5037259;28;19932;-63
2021/01/21 18:24:07;;;;;;;;;;;11.00;99.90;;;;;;5037402;28;20003;-63
2021/01/21 18:26:33;;;;;;;;;;;11.00;99.90;;;;;;5037067;28;19926;-64
2021/01/21 18:28:59;;;;;;;;;;;10.90;99.90;;;;;;5037794;28;19971;-64
2021/01/21 18:31:25;;;;;;;;;;;11.00;99.90;;;;;;5037970;28;19932;-64
2021/01/21 18:33:51;;;;;;;;;;;11.00;99.90;;;;;;5037551;28;19925;-64
2021/01/21 18:36:18;;;;;;;;;;;11.00;99.90;;;;;;5038534;28;19925;-64
2021/01/21 18:38:44;;;;;;;;;;;11.00;99.90;;;;;;5037928;28;19928;-64
2021/01/21 18:41:10;;;;;;;;;;;11.00;99.90;;;;;;5040866;28;19925;-64
2021/01/21 18:43:36;;;;;;;;;;;11.00;99.90;;;;;;5041749;28;19925;-64
2021/01/21 18:46:03;;;;;;;;;;;11.00;99.90;;;;;;5042759;28;19932;-64
2021/01/21 18:48:29;;;;;;;;;;;11.00;99.90;;;;;;5042690;28;19925;-63
2021/01/21 18:50:55;;;;;;;;;;;11.10;99.90;;;;;;5040012;28;20376;-65
2021/01/21 18:53:37;;;;;;;;;;;11.10;99.90;;;;;;5038488;28;19925;-63
2021/01/21 18:56:05;;;;;;;;;;;11.10;99.90;;;;;;5042496;28;19956;-63
2021/01/21 18:58:32;;;;;;;;;;;11.10;99.90;;;;;;5037536;28;19925;-64
2021/01/21 19:00:58;;;;;;;;;;;11.10;99.90;;;;;;5038454;28;19925;-64
2021/01/21 19:03:24;;;;;;;;;;;11.10;99.90;;;;;;5038435;28;19929;-63
2021/01/21 19:05:50;;;;;;;;;;;11.00;99.90;;;;;;5042247;28;19932;-65
2021/01/21 19:08:16;;;;;;;;;;;11.00;99.90;;;;;;5042997;28;19925;-64
2021/01/21 19:10:42;;;;;;;;;;;11.00;99.90;;;;;;5040163;28;19925;-64
2021/01/21 19:13:09;;;;;;;;;;;11.00;99.90;;;;;;5036068;28;19925;-63
2021/01/21 19:15:35;;;;;;;;;;;10.90;99.90;;;;;;5036135;28;19929;-64